sensor_id;sensor_type;location;lat;lon;timestamp;temperature;humidity
23544;DHT22;11950;51.230;4.012;2023-04-06T00:01:43;9.40;99.90
23544;DHT22;11950;51.230;4.012;2023-04-06T00:04:09;9.40;99.90
23544;DHT22;11950;51.230;4.012;2023-04-06T00:06:36;9.40;99.90
23544;DHT22;11950;51.230;4.012;2023-04-06T00:09:02;9.40;99.90
23544;DHT22;11950;51.230;4.012;2023-04-06T00:11:28;9.40;99.90
23544;DHT22;11950;51.230;4.012;2023-04-06T00:13:55;9.40;99.90
23544;DHT22;11950;51.230;4.012;2023-04-06T00:16:21;9.40;99.90
23544;DHT22;11950;51.230;4.012;2023-04-06T00:18:47;9.40;99.90
23544;DHT22;11950;51.230;4.012;2023-04-06T00:21:14;9.40;99.90
23544;DHT22;11950;51.230;4.012;2023-04-06T00:23:41;9.30;99.90
23544;DHT22;11950;51.230;4.012;2023-04-06T00:26:08;9.30;99.90
23544;DHT22;11950;51.230;4.012;2023-04-06T00:28:35;9.30;99.90
23544;DHT22;11950;51.230;4.012;2023-04-06T00:31:01;9.40;99.90
23544;DHT22;11950;51.230;4.012;2023-04-06T00:33:27;9.40;99.90
23544;DHT22;11950;51.230;4.012;2023-04-06T00:35:54;9.40;99.90
23544;DHT22;11950;51.230;4.012;2023-04-06T00:38:21;9.30;99.90
23544;DHT22;11950;51.230;4.012;2023-04-06T00:40:48;9.40;99.90
23544;DHT22;11950;51.230;4.012;2023-04-06T00:43:14;9.40;99.90
23544;DHT22;11950;51.230;4.012;2023-04-06T00:45:41;9.40;99.90
23544;DHT22;11950;51.230;4.012;2023-04-06T00:48:08;9.30;99.90
23544;DHT22;11950;51.230;4.012;2023-04-06T00:50:35;9.30;99.90
23544;DHT22;11950;51.230;4.012;2023-04-06T00:53:02;9.30;99.90
23544;DHT22;11950;51.230;4.012;2023-04-06T00:55:29;9.30;99.90
23544;DHT22;11950;51.230;4.012;2023-04-06T00:57:58;9.20;99.90
23544;DHT22;11950;51.230;4.012;2023-04-06T01:00:27;9.20;99.90
23544;DHT22;11950;51.230;4.012;2023-04-06T01:02:58;9.10;99.90
23544;DHT22;11950;51.230;4.012;2023-04-06T01:05:36;9.10;99.90
23544;DHT22;11950;51.230;4.012;2023-04-06T01:08:09;9.10;99.90
23544;DHT22;11950;51.230;4.012;2023-04-06T01:10:36;9.10;99.90
23544;DHT22;11950;51.230;4.012;2023-04-06T01:13:12;9.10;99.90
23544;DHT22;11950;51.230;4.012;2023-04-06T01:16:05;9.00;99.90
23544;DHT22;11950;51.230;4.012;2023-04-06T01:18:53;9.00;99.90
23544;DHT22;11950;51.230;4.012;2023-04-06T01:21:27;8.90;99.90
23544;DHT22;11950;51.230;4.012;2023-04-06T01:24:12;8.90;99.90
23544;DHT22;11950;51.230;4.012;2023-04-06T01:26:59;8.80;99.90
23544;DHT22;11950;51.230;4.012;2023-04-06T01:29:32;8.90;99.90
23544;DHT22;11950;51.230;4.012;2023-04-06T01:32:00;8.90;99.90
23544;DHT22;11950;51.230;4.012;2023-04-06T01:34:28;8.90;99.90
23544;DHT22;11950;51.230;4.012;2023-04-06T01:37:00;8.90;99.90
23544;DHT22;11950;51.230;4.012;2023-04-06T01:39:30;8.90;99.90
23544;DHT22;11950;51.230;4.012;2023-04-06T01:41:58;8.90;99.90
23544;DHT22;11950;51.230;4.012;2023-04-06T01:44:26;8.80;99.90
23544;DHT22;11950;51.230;4.012;2023-04-06T01:47:04;8.80;99.90
23544;DHT22;11950;51.230;4.012;2023-04-06T01:49:30;8.70;99.90
23544;DHT22;11950;51.230;4.012;2023-04-06T01:51:57;8.70;99.90
23544;DHT22;11950;51.230;4.012;2023-04-06T01:54:23;8.70;99.90
23544;DHT22;11950;51.230;4.012;2023-04-06T01:57:06;8.70;99.90
23544;DHT22;11950;51.230;4.012;2023-04-06T01:59:46;8.70;99.90
23544;DHT22;11950;51.230;4.012;2023-04-06T02:02:21;8.70;99.90
23544;DHT22;11950;51.230;4.012;2023-04-06T02:04:59;8.70;99.90
23544;DHT22;11950;51.230;4.012;2023-04-06T02:07:26;8.70;99.90
23544;DHT22;11950;51.230;4.012;2023-04-06T02:09:54;8.70;99.90
23544;DHT22;11950;51.230;4.012;2023-04-06T02:12:26;8.70;99.90
23544;DHT22;11950;51.230;4.012;2023-04-06T02:14:52;8.70;99.90
23544;DHT22;11950;51.230;4.012;2023-04-06T02:17:18;8.60;99.90
23544;DHT22;11950;51.230;4.012;2023-04-06T02:19:45;8.60;99.90
23544;DHT22;11950;51.230;4.012;2023-04-06T02:22:12;8.60;99.90
23544;DHT22;11950;51.230;4.012;2023-04-06T02:24:38;8.60;99.90
23544;DHT22;11950;51.230;4.012;2023-04-06T02:27:04;8.60;99.90
23544;DHT22;11950;51.230;4.012;2023-04-06T02:29:32;8.60;99.90
23544;DHT22;11950;51.230;4.012;2023-04-06T02:31:58;8.60;99.90
23544;DHT22;11950;51.230;4.012;2023-04-06T02:34:25;8.50;99.90
23544;DHT22;11950;51.230;4.012;2023-04-06T02:36:52;8.60;99.90
23544;DHT22;11950;51.230;4.012;2023-04-06T02:39:18;8.60;99.90
23544;DHT22;11950;51.230;4.012;2023-04-06T02:41:45;8.50;99.90
23544;DHT22;11950;51.230;4.012;2023-04-06T02:44:15;8.50;99.90
23544;DHT22;11950;51.230;4.012;2023-04-06T02:46:44;8.50;99.90
23544;DHT22;11950;51.230;4.012;2023-04-06T02:49:10;8.50;99.90
23544;DHT22;11950;51.230;4.012;2023-04-06T02:51:37;8.40;99.90
23544;DHT22;11950;51.230;4.012;2023-04-06T02:54:14;8.40;99.90
23544;DHT22;11950;51.230;4.012;2023-04-06T02:56:41;8.40;99.90
23544;DHT22;11950;51.230;4.012;2023-04-06T02:59:08;8.40;99.90
23544;DHT22;11950;51.230;4.012;2023-04-06T03:01:34;8.40;99.90
23544;DHT22;11950;51.230;4.012;2023-04-06T03:04:04;8.40;99.90
23544;DHT22;11950;51.230;4.012;2023-04-06T03:06:30;8.50;99.90
23544;DHT22;11950;51.230;4.012;2023-04-06T03:09:03;8.40;99.90
23544;DHT22;11950;51.230;4.012;2023-04-06T03:11:31;8.40;99.90
23544;DHT22;11950;51.230;4.012;2023-04-06T03:13:58;8.40;99.90
23544;DHT22;11950;51.230;4.012;2023-04-06T03:16:25;8.40;99.90
23544;DHT22;11950;51.230;4.012;2023-04-06T03:18:52;8.40;99.90
23544;DHT22;11950;51.230;4.012;2023-04-06T03:21:18;8.50;99.90
23544;DHT22;11950;51.230;4.012;2023-04-06T03:23:51;8.50;99.90
23544;DHT22;11950;51.230;4.012;2023-04-06T03:26:18;8.50;99.90
23544;DHT22;11950;51.230;4.012;2023-04-06T03:28:44;8.50;99.90
23544;DHT22;11950;51.230;4.012;2023-04-06T03:31:11;8.50;99.90
23544;DHT22;11950;51.230;4.012;2023-04-06T03:33:49;8.50;99.90
23544;DHT22;11950;51.230;4.012;2023-04-06T03:36:26;8.50;99.90
23544;DHT22;11950;51.230;4.012;2023-04-06T03:38:55;8.50;99.90
23544;DHT22;11950;51.230;4.012;2023-04-06T03:41:21;8.50;99.90
23544;DHT22;11950;51.230;4.012;2023-04-06T03:43:56;8.50;99.90
23544;DHT22;11950;51.230;4.012;2023-04-06T03:46:22;8.60;99.90
23544;DHT22;11950;51.230;4.012;2023-04-06T03:48:52;8.50;99.90
23544;DHT22;11950;51.230;4.012;2023-04-06T03:51:21;8.50;99.90
23544;DHT22;11950;51.230;4.012;2023-04-06T03:53:48;8.50;99.90
23544;DHT22;11950;51.230;4.012;2023-04-06T03:56:15;8.50;99.90
23544;DHT22;11950;51.230;4.012;2023-04-06T03:58:41;8.50;99.90
23544;DHT22;11950;51.230;4.012;2023-04-06T04:01:07;8.60;99.90
23544;DHT22;11950;51.230;4.012;2023-04-06T04:03:34;8.60;99.90
23544;DHT22;11950;51.230;4.012;2023-04-06T04:06:00;8.60;99.90
23544;DHT22;11950;51.230;4.012;2023-04-06T04:08:27;8.60;99.90
23544;DHT22;11950;51.230;4.012;2023-04-06T04:10:53;8.60;99.90
23544;DHT22;11950;51.230;4.012;2023-04-06T04:13:19;8.60;99.90
23544;DHT22;11950;51.230;4.012;2023-04-06T04:15:48;8.70;99.90
23544;DHT22;11950;51.230;4.012;2023-04-06T04:18:15;8.70;99.90
23544;DHT22;11950;51.230;4.012;2023-04-06T04:20:41;8.70;99.90
23544;DHT22;11950;51.230;4.012;2023-04-06T04:23:09;8.80;99.90
23544;DHT22;11950;51.230;4.012;2023-04-06T04:25:36;8.70;99.90
23544;DHT22;11950;51.230;4.012;2023-04-06T04:28:03;8.70;99.90
23544;DHT22;11950;51.230;4.012;2023-04-06T04:30:30;8.80;99.90
23544;DHT22;11950;51.230;4.012;2023-04-06T04:32:56;8.80;99.90
23544;DHT22;11950;51.230;4.012;2023-04-06T04:35:23;8.80;99.90
23544;DHT22;11950;51.230;4.012;2023-04-06T04:37:50;8.80;99.90
23544;DHT22;11950;51.230;4.012;2023-04-06T04:40:17;8.80;99.90
23544;DHT22;11950;51.230;4.012;2023-04-06T04:42:54;8.80;99.90
23544;DHT22;11950;51.230;4.012;2023-04-06T04:45:29;8.80;99.90
23544;DHT22;11950;51.230;4.012;2023-04-06T04:47:58;8.80;99.90
23544;DHT22;11950;51.230;4.012;2023-04-06T04:50:29;8.90;99.90
23544;DHT22;11950;51.230;4.012;2023-04-06T04:52:58;8.90;99.90
23544;DHT22;11950;51.230;4.012;2023-04-06T04:55:26;8.90;99.90
23544;DHT22;11950;51.230;4.012;2023-04-06T04:57:55;8.90;99.90
23544;DHT22;11950;51.230;4.012;2023-04-06T05:00:30;8.90;99.90
23544;DHT22;11950;51.230;4.012;2023-04-06T05:02:58;8.90;99.90
23544;DHT22;11950;51.230;4.012;2023-04-06T05:05:27;8.90;99.90
23544;DHT22;11950;51.230;4.012;2023-04-06T05:07:54;8.90;99.90
23544;DHT22;11950;51.230;4.012;2023-04-06T05:10:30;8.90;99.90
23544;DHT22;11950;51.230;4.012;2023-04-06T05:13:00;8.90;99.90
23544;DHT22;11950;51.230;4.012;2023-04-06T05:15:27;8.90;99.90
23544;DHT22;11950;51.230;4.012;2023-04-06T05:18:00;8.90;99.90
23544;DHT22;11950;51.230;4.012;2023-04-06T05:20:31;9.00;99.90
23544;DHT22;11950;51.230;4.012;2023-04-06T05:22:58;8.90;99.90
23544;DHT22;11950;51.230;4.012;2023-04-06T05:25:25;9.00;99.90
23544;DHT22;11950;51.230;4.012;2023-04-06T05:27:55;9.00;99.90
23544;DHT22;11950;51.230;4.012;2023-04-06T05:30:39;9.00;99.90
23544;DHT22;11950;51.230;4.012;2023-04-06T05:33:09;9.00;99.90
23544;DHT22;11950;51.230;4.012;2023-04-06T05:35:59;9.00;99.90
23544;DHT22;11950;51.230;4.012;2023-04-06T05:38:27;9.10;99.90
23544;DHT22;11950;51.230;4.012;2023-04-06T05:40:56;9.10;99.90
23544;DHT22;11950;51.230;4.012;2023-04-06T05:43:26;9.10;99.90
23544;DHT22;11950;51.230;4.012;2023-04-06T05:45:55;9.10;99.90
23544;DHT22;11950;51.230;4.012;2023-04-06T05:48:21;9.20;99.90
23544;DHT22;11950;51.230;4.012;2023-04-06T05:50:51;9.20;99.90
23544;DHT22;11950;51.230;4.012;2023-04-06T05:53:20;9.20;99.90
23544;DHT22;11950;51.230;4.012;2023-04-06T05:55:53;9.20;99.90
23544;DHT22;11950;51.230;4.012;2023-04-06T05:58:21;9.20;99.90
23544;DHT22;11950;51.230;4.012;2023-04-06T06:00:49;9.30;99.90
23544;DHT22;11950;51.230;4.012;2023-04-06T06:03:18;9.30;99.90
23544;DHT22;11950;51.230;4.012;2023-04-06T06:05:50;9.30;99.90
23544;DHT22;11950;51.230;4.012;2023-04-06T06:08:24;9.30;99.90
23544;DHT22;11950;51.230;4.012;2023-04-06T06:10:52;9.30;99.90
23544;DHT22;11950;51.230;4.012;2023-04-06T06:13:22;9.30;99.90
23544;DHT22;11950;51.230;4.012;2023-04-06T06:15:49;9.30;99.90
23544;DHT22;11950;51.230;4.012;2023-04-06T06:18:18;9.30;99.90
23544;DHT22;11950;51.230;4.012;2023-04-06T06:20:45;9.30;99.90
23544;DHT22;11950;51.230;4.012;2023-04-06T06:23:11;9.30;99.90
23544;DHT22;11950;51.230;4.012;2023-04-06T06:25:38;9.40;99.90
23544;DHT22;11950;51.230;4.012;2023-04-06T06:28:04;9.40;99.90
23544;DHT22;11950;51.230;4.012;2023-04-06T06:30:32;9.40;99.90
23544;DHT22;11950;51.230;4.012;2023-04-06T06:32:59;9.40;99.90
23544;DHT22;11950;51.230;4.012;2023-04-06T06:35:27;9.40;99.90
23544;DHT22;11950;51.230;4.012;2023-04-06T06:37:53;9.40;99.90
23544;DHT22;11950;51.230;4.012;2023-04-06T06:40:23;9.40;99.90
23544;DHT22;11950;51.230;4.012;2023-04-06T06:42:50;9.40;99.90
23544;DHT22;11950;51.230;4.012;2023-04-06T06:45:32;9.50;99.90
23544;DHT22;11950;51.230;4.012;2023-04-06T06:47:59;9.50;99.90
23544;DHT22;11950;51.230;4.012;2023-04-06T06:50:25;9.50;99.90
23544;DHT22;11950;51.230;4.012;2023-04-06T06:52:51;9.50;99.90
23544;DHT22;11950;51.230;4.012;2023-04-06T06:55:18;9.50;99.90
23544;DHT22;11950;51.230;4.012;2023-04-06T06:57:45;9.50;99.90
23544;DHT22;11950;51.230;4.012;2023-04-06T07:00:15;9.50;99.90
23544;DHT22;11950;51.230;4.012;2023-04-06T07:02:43;9.50;99.90
23544;DHT22;11950;51.230;4.012;2023-04-06T07:05:10;9.50;99.90
23544;DHT22;11950;51.230;4.012;2023-04-06T07:07:37;9.60;99.90
23544;DHT22;11950;51.230;4.012;2023-04-06T07:10:04;9.70;99.90
23544;DHT22;11950;51.230;4.012;2023-04-06T07:12:30;9.70;99.90
23544;DHT22;11950;51.230;4.012;2023-04-06T07:14:56;9.70;99.90
23544;DHT22;11950;51.230;4.012;2023-04-06T07:17:23;9.70;99.90
23544;DHT22;11950;51.230;4.012;2023-04-06T07:19:49;9.70;99.90
23544;DHT22;11950;51.230;4.012;2023-04-06T07:22:16;9.80;99.90
23544;DHT22;11950;51.230;4.012;2023-04-06T07:24:42;9.80;99.90
23544;DHT22;11950;51.230;4.012;2023-04-06T07:27:09;9.90;99.90
23544;DHT22;11950;51.230;4.012;2023-04-06T07:29:35;9.90;99.90
23544;DHT22;11950;51.230;4.012;2023-04-06T07:32:02;10.00;99.90
23544;DHT22;11950;51.230;4.012;2023-04-06T07:34:29;10.00;99.90
23544;DHT22;11950;51.230;4.012;2023-04-06T07:36:55;10.00;99.90
23544;DHT22;11950;51.230;4.012;2023-04-06T07:39:22;10.00;99.90
23544;DHT22;11950;51.230;4.012;2023-04-06T07:41:49;10.10;99.90
23544;DHT22;11950;51.230;4.012;2023-04-06T07:44:16;10.10;99.90
23544;DHT22;11950;51.230;4.012;2023-04-06T07:46:42;10.20;99.90
23544;DHT22;11950;51.230;4.012;2023-04-06T07:49:09;10.20;99.90
23544;DHT22;11950;51.230;4.012;2023-04-06T07:51:37;10.20;99.90
23544;DHT22;11950;51.230;4.012;2023-04-06T07:54:03;10.30;99.90
23544;DHT22;11950;51.230;4.012;2023-04-06T07:56:29;10.30;99.90
23544;DHT22;11950;51.230;4.012;2023-04-06T07:58:56;10.30;99.90
23544;DHT22;11950;51.230;4.012;2023-04-06T08:01:23;10.30;99.90
23544;DHT22;11950;51.230;4.012;2023-04-06T08:03:49;10.30;99.90
23544;DHT22;11950;51.230;4.012;2023-04-06T08:06:17;10.30;99.90
23544;DHT22;11950;51.230;4.012;2023-04-06T08:08:43;10.30;99.90
23544;DHT22;11950;51.230;4.012;2023-04-06T08:11:09;10.30;99.90
23544;DHT22;11950;51.230;4.012;2023-04-06T08:13:36;10.30;99.90
23544;DHT22;11950;51.230;4.012;2023-04-06T08:16:02;10.20;99.90
23544;DHT22;11950;51.230;4.012;2023-04-06T08:18:28;10.20;99.90
23544;DHT22;11950;51.230;4.012;2023-04-06T08:20:56;10.30;99.90
23544;DHT22;11950;51.230;4.012;2023-04-06T08:23:22;10.30;99.90
23544;DHT22;11950;51.230;4.012;2023-04-06T08:25:49;10.30;99.90
23544;DHT22;11950;51.230;4.012;2023-04-06T08:28:15;10.30;99.90
23544;DHT22;11950;51.230;4.012;2023-04-06T08:30:42;10.30;99.90
23544;DHT22;11950;51.230;4.012;2023-04-06T08:33:09;10.30;99.90
23544;DHT22;11950;51.230;4.012;2023-04-06T08:35:36;10.40;99.90
23544;DHT22;11950;51.230;4.012;2023-04-06T08:38:02;10.40;99.90
23544;DHT22;11950;51.230;4.012;2023-04-06T08:40:28;10.40;99.90
23544;DHT22;11950;51.230;4.012;2023-04-06T08:42:56;10.40;99.90
23544;DHT22;11950;51.230;4.012;2023-04-06T08:45:23;10.40;99.90
23544;DHT22;11950;51.230;4.012;2023-04-06T08:47:52;10.50;99.90
23544;DHT22;11950;51.230;4.012;2023-04-06T08:50:19;10.50;99.90
23544;DHT22;11950;51.230;4.012;2023-04-06T08:52:47;10.50;99.90
23544;DHT22;11950;51.230;4.012;2023-04-06T08:55:15;10.50;99.90
23544;DHT22;11950;51.230;4.012;2023-04-06T08:57:42;10.50;99.90
23544;DHT22;11950;51.230;4.012;2023-04-06T09:00:11;10.50;99.90
23544;DHT22;11950;51.230;4.012;2023-04-06T09:02:42;10.50;99.90
23544;DHT22;11950;51.230;4.012;2023-04-06T09:05:09;10.50;99.90
23544;DHT22;11950;51.230;4.012;2023-04-06T09:07:36;10.50;99.90
23544;DHT22;11950;51.230;4.012;2023-04-06T09:10:05;10.60;99.90
23544;DHT22;11950;51.230;4.012;2023-04-06T09:12:32;10.60;99.90
23544;DHT22;11950;51.230;4.012;2023-04-06T09:14:59;10.50;99.90
23544;DHT22;11950;51.230;4.012;2023-04-06T09:17:28;10.60;99.90
23544;DHT22;11950;51.230;4.012;2023-04-06T09:19:55;10.60;99.90
23544;DHT22;11950;51.230;4.012;2023-04-06T09:22:21;10.60;99.90
23544;DHT22;11950;51.230;4.012;2023-04-06T09:24:53;10.60;99.90
23544;DHT22;11950;51.230;4.012;2023-04-06T09:27:38;10.60;99.90
23544;DHT22;11950;51.230;4.012;2023-04-06T09:30:11;10.60;99.90
23544;DHT22;11950;51.230;4.012;2023-04-06T09:32:50;10.60;99.90
23544;DHT22;11950;51.230;4.012;2023-04-06T09:35:17;10.60;99.90
23544;DHT22;11950;51.230;4.012;2023-04-06T09:37:50;10.70;99.90
23544;DHT22;11950;51.230;4.012;2023-04-06T09:40:17;10.70;99.90
23544;DHT22;11950;51.230;4.012;2023-04-06T09:42:48;10.70;99.90
23544;DHT22;11950;51.230;4.012;2023-04-06T09:45:16;10.70;99.90
23544;DHT22;11950;51.230;4.012;2023-04-06T09:47:44;10.80;99.90
23544;DHT22;11950;51.230;4.012;2023-04-06T09:50:13;10.70;99.90
23544;DHT22;11950;51.230;4.012;2023-04-06T09:52:50;10.80;99.90
23544;DHT22;11950;51.230;4.012;2023-04-06T09:55:28;10.90;99.90
23544;DHT22;11950;51.230;4.012;2023-04-06T09:58:04;10.80;99.90
23544;DHT22;11950;51.230;4.012;2023-04-06T10:00:48;10.90;99.90
23544;DHT22;11950;51.230;4.012;2023-04-06T10:06:11;10.90;99.90
23544;DHT22;11950;51.230;4.012;2023-04-06T10:08:40;10.90;99.90
23544;DHT22;11950;51.230;4.012;2023-04-06T10:11:10;11.00;99.90
23544;DHT22;11950;51.230;4.012;2023-04-06T10:13:37;10.90;99.90
23544;DHT22;11950;51.230;4.012;2023-04-06T10:16:04;10.90;99.90
23544;DHT22;11950;51.230;4.012;2023-04-06T10:18:32;11.00;99.90
23544;DHT22;11950;51.230;4.012;2023-04-06T10:21:21;11.00;99.90
23544;DHT22;11950;51.230;4.012;2023-04-06T10:23:52;11.00;99.90
23544;DHT22;11950;51.230;4.012;2023-04-06T10:26:21;10.90;99.90
23544;DHT22;11950;51.230;4.012;2023-04-06T10:28:48;10.90;99.90
23544;DHT22;11950;51.230;4.012;2023-04-06T10:31:15;10.90;99.90
23544;DHT22;11950;51.230;4.012;2023-04-06T10:36:24;11.00;99.90
23544;DHT22;11950;51.230;4.012;2023-04-06T10:38:56;11.00;99.90
23544;DHT22;11950;51.230;4.012;2023-04-06T10:41:24;10.90;99.90
23544;DHT22;11950;51.230;4.012;2023-04-06T10:43:57;11.00;99.90
23544;DHT22;11950;51.230;4.012;2023-04-06T10:46:32;11.00;99.90
23544;DHT22;11950;51.230;4.012;2023-04-06T10:49:10;11.00;99.90
23544;DHT22;11950;51.230;4.012;2023-04-06T10:51:38;11.10;99.90
23544;DHT22;11950;51.230;4.012;2023-04-06T10:54:06;11.20;99.90
23544;DHT22;11950;51.230;4.012;2023-04-06T10:56:33;11.20;99.90
23544;DHT22;11950;51.230;4.012;2023-04-06T10:59:02;11.20;99.90
23544;DHT22;11950;51.230;4.012;2023-04-06T11:01:29;11.20;99.90
23544;DHT22;11950;51.230;4.012;2023-04-06T11:03:56;11.20;99.90
23544;DHT22;11950;51.230;4.012;2023-04-06T11:06:27;11.20;99.90
23544;DHT22;11950;51.230;4.012;2023-04-06T11:08:56;11.10;99.90
23544;DHT22;11950;51.230;4.012;2023-04-06T11:11:24;11.10;99.90
23544;DHT22;11950;51.230;4.012;2023-04-06T11:13:58;11.20;99.90
23544;DHT22;11950;51.230;4.012;2023-04-06T11:16:30;11.10;99.90
23544;DHT22;11950;51.230;4.012;2023-04-06T11:18:58;11.10;99.90
23544;DHT22;11950;51.230;4.012;2023-04-06T11:21:40;11.10;99.90
23544;DHT22;11950;51.230;4.012;2023-04-06T11:24:10;11.20;99.90
23544;DHT22;11950;51.230;4.012;2023-04-06T11:26:56;11.20;99.90
23544;DHT22;11950;51.230;4.012;2023-04-06T11:29:30;11.20;99.90
23544;DHT22;11950;51.230;4.012;2023-04-06T11:32:01;11.20;99.90
23544;DHT22;11950;51.230;4.012;2023-04-06T11:34:29;11.20;99.90
23544;DHT22;11950;51.230;4.012;2023-04-06T11:37:01;11.20;99.90
23544;DHT22;11950;51.230;4.012;2023-04-06T11:39:51;11.20;99.90
23544;DHT22;11950;51.230;4.012;2023-04-06T11:42:21;11.30;99.90
23544;DHT22;11950;51.230;4.012;2023-04-06T11:44:51;11.30;99.90
23544;DHT22;11950;51.230;4.012;2023-04-06T11:47:19;11.30;99.90
23544;DHT22;11950;51.230;4.012;2023-04-06T11:49:46;11.20;99.90
23544;DHT22;11950;51.230;4.012;2023-04-06T11:52:21;11.30;99.90
23544;DHT22;11950;51.230;4.012;2023-04-06T11:54:49;11.30;99.90
23544;DHT22;11950;51.230;4.012;2023-04-06T11:57:16;11.40;99.90
23544;DHT22;11950;51.230;4.012;2023-04-06T11:59:43;11.40;99.90
23544;DHT22;11950;51.230;4.012;2023-04-06T12:02:09;11.50;99.90
23544;DHT22;11950;51.230;4.012;2023-04-06T12:04:37;11.40;99.90
23544;DHT22;11950;51.230;4.012;2023-04-06T12:07:04;11.50;99.90
23544;DHT22;11950;51.230;4.012;2023-04-06T12:09:31;11.50;99.90
23544;DHT22;11950;51.230;4.012;2023-04-06T12:11:57;11.50;99.90
23544;DHT22;11950;51.230;4.012;2023-04-06T12:14:24;11.50;99.90
23544;DHT22;11950;51.230;4.012;2023-04-06T12:16:50;11.50;99.90
23544;DHT22;11950;51.230;4.012;2023-04-06T12:19:16;11.60;99.90
23544;DHT22;11950;51.230;4.012;2023-04-06T12:21:42;11.60;99.90
23544;DHT22;11950;51.230;4.012;2023-04-06T12:24:09;11.60;99.90
23544;DHT22;11950;51.230;4.012;2023-04-06T12:26:35;11.60;99.90
23544;DHT22;11950;51.230;4.012;2023-04-06T12:29:03;11.60;99.90
23544;DHT22;11950;51.230;4.012;2023-04-06T12:31:36;11.60;99.90
23544;DHT22;11950;51.230;4.012;2023-04-06T12:34:03;11.70;99.90
23544;DHT22;11950;51.230;4.012;2023-04-06T12:36:30;11.70;99.90
23544;DHT22;11950;51.230;4.012;2023-04-06T12:38:57;11.70;99.90
23544;DHT22;11950;51.230;4.012;2023-04-06T12:41:23;11.70;99.90
23544;DHT22;11950;51.230;4.012;2023-04-06T12:43:50;11.70;99.90
23544;DHT22;11950;51.230;4.012;2023-04-06T12:46:17;11.70;99.90
23544;DHT22;11950;51.230;4.012;2023-04-06T12:48:43;11.70;99.90
23544;DHT22;11950;51.230;4.012;2023-04-06T12:51:10;11.70;99.90
23544;DHT22;11950;51.230;4.012;2023-04-06T12:53:36;11.70;99.90
23544;DHT22;11950;51.230;4.012;2023-04-06T12:56:14;11.70;99.90
23544;DHT22;11950;51.230;4.012;2023-04-06T12:58:41;11.60;99.90
23544;DHT22;11950;51.230;4.012;2023-04-06T13:01:08;11.70;99.90
23544;DHT22;11950;51.230;4.012;2023-04-06T13:03:34;11.70;99.90
23544;DHT22;11950;51.230;4.012;2023-04-06T13:06:01;11.70;99.90
23544;DHT22;11950;51.230;4.012;2023-04-06T13:08:27;11.70;99.90
23544;DHT22;11950;51.230;4.012;2023-04-06T13:10:54;11.70;99.90
23544;DHT22;11950;51.230;4.012;2023-04-06T13:13:27;11.60;99.90
23544;DHT22;11950;51.230;4.012;2023-04-06T13:15:58;11.70;99.90
23544;DHT22;11950;51.230;4.012;2023-04-06T13:18:25;11.70;99.90
23544;DHT22;11950;51.230;4.012;2023-04-06T13:20:51;11.70;99.90
23544;DHT22;11950;51.230;4.012;2023-04-06T13:23:17;11.70;99.90
23544;DHT22;11950;51.230;4.012;2023-04-06T13:25:43;11.70;99.90
23544;DHT22;11950;51.230;4.012;2023-04-06T13:28:10;11.70;99.90
23544;DHT22;11950;51.230;4.012;2023-04-06T13:30:36;11.70;99.90
23544;DHT22;11950;51.230;4.012;2023-04-06T13:33:02;11.80;99.90
23544;DHT22;11950;51.230;4.012;2023-04-06T13:35:30;11.70;99.90
23544;DHT22;11950;51.230;4.012;2023-04-06T13:37:56;11.80;99.90
23544;DHT22;11950;51.230;4.012;2023-04-06T13:40:23;11.80;99.90
23544;DHT22;11950;51.230;4.012;2023-04-06T13:42:49;11.80;99.90
23544;DHT22;11950;51.230;4.012;2023-04-06T13:45:16;11.80;99.90
23544;DHT22;11950;51.230;4.012;2023-04-06T13:47:42;11.80;99.90
23544;DHT22;11950;51.230;4.012;2023-04-06T13:50:09;11.90;99.90
23544;DHT22;11950;51.230;4.012;2023-04-06T13:52:35;11.90;99.90
23544;DHT22;11950;51.230;4.012;2023-04-06T13:55:02;11.90;99.90
23544;DHT22;11950;51.230;4.012;2023-04-06T13:57:28;11.90;99.90
23544;DHT22;11950;51.230;4.012;2023-04-06T13:59:55;12.00;99.90
23544;DHT22;11950;51.230;4.012;2023-04-06T14:02:22;12.00;99.90
23544;DHT22;11950;51.230;4.012;2023-04-06T14:04:53;12.00;99.90
23544;DHT22;11950;51.230;4.012;2023-04-06T14:07:21;12.00;99.90
23544;DHT22;11950;51.230;4.012;2023-04-06T14:09:47;12.00;99.90
23544;DHT22;11950;51.230;4.012;2023-04-06T14:12:14;12.00;99.90
23544;DHT22;11950;51.230;4.012;2023-04-06T14:14:40;12.00;99.90
23544;DHT22;11950;51.230;4.012;2023-04-06T14:17:06;12.00;99.90
23544;DHT22;11950;51.230;4.012;2023-04-06T14:19:32;12.00;99.90
23544;DHT22;11950;51.230;4.012;2023-04-06T14:21:59;12.00;99.90
23544;DHT22;11950;51.230;4.012;2023-04-06T14:24:26;12.00;99.90
23544;DHT22;11950;51.230;4.012;2023-04-06T14:26:52;12.00;99.90
23544;DHT22;11950;51.230;4.012;2023-04-06T14:29:19;12.00;99.90
23544;DHT22;11950;51.230;4.012;2023-04-06T14:31:47;12.10;99.90
23544;DHT22;11950;51.230;4.012;2023-04-06T14:34:14;12.10;99.90
23544;DHT22;11950;51.230;4.012;2023-04-06T14:36:41;12.10;99.90
23544;DHT22;11950;51.230;4.012;2023-04-06T14:39:08;12.10;99.90
23544;DHT22;11950;51.230;4.012;2023-04-06T14:41:36;12.10;99.90
23544;DHT22;11950;51.230;4.012;2023-04-06T14:44:02;12.10;99.90
23544;DHT22;11950;51.230;4.012;2023-04-06T14:46:28;12.10;99.90
23544;DHT22;11950;51.230;4.012;2023-04-06T14:48:58;12.10;99.90
23544;DHT22;11950;51.230;4.012;2023-04-06T14:51:25;12.10;99.90
23544;DHT22;11950;51.230;4.012;2023-04-06T14:53:54;12.10;99.90
23544;DHT22;11950;51.230;4.012;2023-04-06T14:56:24;12.10;99.90
23544;DHT22;11950;51.230;4.012;2023-04-06T14:58:51;12.20;99.90
23544;DHT22;11950;51.230;4.012;2023-04-06T15:01:19;12.20;99.90
23544;DHT22;11950;51.230;4.012;2023-04-06T15:03:46;12.20;99.90
23544;DHT22;11950;51.230;4.012;2023-04-06T15:06:13;12.20;99.90
23544;DHT22;11950;51.230;4.012;2023-04-06T15:08:43;12.20;99.90
23544;DHT22;11950;51.230;4.012;2023-04-06T15:11:11;12.20;99.90
23544;DHT22;11950;51.230;4.012;2023-04-06T15:13:39;12.20;99.90
23544;DHT22;11950;51.230;4.012;2023-04-06T15:16:06;12.30;99.90
23544;DHT22;11950;51.230;4.012;2023-04-06T15:18:33;12.30;99.90
23544;DHT22;11950;51.230;4.012;2023-04-06T15:21:00;12.30;99.90
23544;DHT22;11950;51.230;4.012;2023-04-06T15:23:27;12.30;99.90
23544;DHT22;11950;51.230;4.012;2023-04-06T15:25:57;12.30;99.90
23544;DHT22;11950;51.230;4.012;2023-04-06T15:28:23;12.40;99.90
23544;DHT22;11950;51.230;4.012;2023-04-06T15:30:53;12.40;99.90
23544;DHT22;11950;51.230;4.012;2023-04-06T15:33:20;12.40;99.90
23544;DHT22;11950;51.230;4.012;2023-04-06T15:35:48;12.40;99.90
23544;DHT22;11950;51.230;4.012;2023-04-06T15:38:14;12.40;99.90
23544;DHT22;11950;51.230;4.012;2023-04-06T15:40:45;12.40;99.90
23544;DHT22;11950;51.230;4.012;2023-04-06T15:43:12;12.50;99.90
23544;DHT22;11950;51.230;4.012;2023-04-06T15:45:38;12.50;99.90
23544;DHT22;11950;51.230;4.012;2023-04-06T15:48:05;12.60;99.90
23544;DHT22;11950;51.230;4.012;2023-04-06T15:50:32;12.60;99.90
23544;DHT22;11950;51.230;4.012;2023-04-06T15:52:58;12.60;99.90